Time;durP1;ratioP1;P1;durP2;ratioP2;P2;SDS_P1;SDS_P2;PMS_P1;PMS_P2;Temp;Humidity;BMP_temperature;BMP_pressure;BME280_temperature;BME280_humidity;BME280_pressure;Samples;Min_cycle;Max_cycle;Signal;HPM_P1;HPM_P2
2022/12/15 00:38:42;;;;;;;15.93;10.40;;;;;;;2.34;100.00;101212.09;10539870;28;20511;-78
2022/12/15 00:43:43;;;;;;;13.93;9.95;;;;;;;1.96;100.00;101163.66;10539808;28;20040;-77
2022/12/15 00:48:44;;;;;;;17.35;9.50;;;;;;;1.99;100.00;101173.13;10539848;28;20063;-78
2022/12/15 01:20:24;;;;;;;12.93;9.00;;;;;;;2.46;100.00;101221.84;10538550;28;20073;-78
2022/12/15 01:25:26;;;;;;;13.63;9.35;;;;;;;2.60;100.00;101249.81;10538167;28;20119;-78
2022/12/15 01:30:27;;;;;;;13.30;9.18;;;;;;;2.05;100.00;101168.34;10537496;28;20044;-77
2022/12/15 01:35:28;;;;;;;12.32;8.82;;;;;;;1.72;100.00;101108.34;10533963;28;20096;-77
2022/12/15 01:40:43;;;;;;;14.98;10.13;;;;;;;2.40;100.00;101224.84;10515764;28;20044;-78
2022/12/15 01:45:54;;;;;;;13.80;9.63;;;;;;;2.57;100.00;101248.22;10508214;28;20056;-77
2022/12/15 01:51:01;;;;;;;18.02;10.85;;;;;;;2.23;100.00;101191.75;10528915;28;20052;-78
2022/12/15 01:56:04;;;;;;;14.25;9.38;;;;;;;2.55;100.00;101233.53;10496560;28;20043;-77
2022/12/15 02:01:06;;;;;;;14.48;10.02;;;;;;;2.59;100.00;101267.34;10499230;28;20040;-78
2022/12/15 02:06:08;;;;;;;13.00;9.23;;;;;;;2.35;100.00;101226.88;10536641;28;20040;-78
2022/12/15 02:11:37;;;;;;;14.48;10.00;;;;;;;2.50;100.00;101263.50;10537215;28;20040;-78
2022/12/15 02:17:02;;;;;;;14.35;9.60;;;;;;;2.32;100.00;101227.06;10537246;28;20050;-78
2022/12/15 02:22:06;;;;;;;13.70;9.25;;;;;;;2.50;100.00;101260.88;10536902;28;20509;-78
2022/12/15 02:27:27;;;;;;;16.23;10.37;;;;;;;2.28;100.00;101208.06;10536881;28;20086;-78
2022/12/15 02:32:39;;;;;;;16.00;8.90;;;;;;;1.77;100.00;101140.34;10532379;28;20488;-78
2022/12/15 02:37:40;;;;;;;13.13;8.82;;;;;;;1.97;100.00;101178.44;10487992;28;20044;-78
2022/12/15 02:42:50;;;;;;;12.25;8.05;;;;;;;2.50;100.00;101271.38;10536653;28;20131;-78
2022/12/15 02:48:11;;;;;;;12.68;7.97;;;;;;;2.55;100.00;101270.25;10536774;28;20056;-78
2022/12/15 02:53:48;;;;;;;12.63;8.32;;;;;;;2.42;100.00;101275.38;10537536;28;20568;-78
2022/12/15 02:59:14;;;;;;;13.60;8.98;;;;;;;2.33;100.00;101278.56;10543745;28;20089;-78
2022/12/15 03:04:15;;;;;;;15.73;9.10;;;;;;;2.17;100.00;101278.63;10540015;28;20039;-79
2022/12/15 03:09:16;;;;;;;16.40;9.55;;;;;;;2.05;100.00;101269.72;10518614;28;20496;-82
2022/12/15 03:14:17;;;;;;;18.65;9.82;;;;;;;1.81;100.00;101232.72;10501876;28;20131;-76
2022/12/15 03:19:18;;;;;;;16.95;10.77;;;;;;;2.04;100.00;101273.28;10501580;28;20077;-77
2022/12/15 03:24:19;;;;;;;17.13;10.45;;;;;;;1.78;100.00;101244.19;10500180;28;20403;-77
2022/12/15 03:29:20;;;;;;;17.05;10.50;;;;;;;1.99;100.00;101285.81;10499989;28;20045;-77
2022/12/15 03:34:21;;;;;;;16.65;10.43;;;;;;;1.94;100.00;101282.59;10481445;28;20063;-80
2022/12/15 03:39:22;;;;;;;16.92;10.57;;;;;;;1.53;100.00;101199.44;10490419;28;20043;-78
2022/12/15 03:44:23;;;;;;;19.38;10.20;;;;;;;1.98;100.00;101284.13;10541926;28;20074;-74
2022/12/15 03:49:24;;;;;;;16.02;10.00;;;;;;;1.62;100.00;101232.09;10542388;28;20127;-79
2022/12/15 03:54:25;;;;;;;18.00;10.15;;;;;;;1.67;100.00;101228.25;10540989;28;20067;-74
2022/12/15 03:59:26;;;;;;;19.58;9.70;;;;;;;1.52;100.00;101208.19;10540945;28;20040;-74
2022/12/15 04:04:26;;;;;;;21.58;9.63;;;;;;;1.92;100.00;101289.72;10540216;28;20032;-74
2022/12/15 04:09:27;;;;;;;21.65;9.80;;;;;;;1.92;100.00;101300.22;10541074;28;20180;-74
2022/12/15 04:14:29;;;;;;;18.30;9.82;;;;;;;1.79;100.00;101286.94;10540450;28;20039;-75
2022/12/15 05:34:00;;;;;;;15.25;10.65;;;;;;;1.98;100.00;101320.81;10538428;28;20034;-79
2022/12/15 05:39:01;;;;;;;18.08;10.65;;;;;;;1.91;100.00;101299.34;10537188;28;20463;-79
2022/12/15 05:44:02;;;;;;;18.58;10.27;;;;;;;1.67;100.00;101251.84;10537810;28;20419;-79
2022/12/15 05:49:07;;;;;;;18.55;10.07;;;;;;;1.73;100.00;101269.81;10538045;28;20060;-79
2022/12/15 05:54:10;;;;;;;15.93;10.60;;;;;;;2.00;100.00;101342.53;10538239;28;20036;-79
2022/12/15 05:59:12;;;;;;;22.38;11.88;;;;;;;2.05;100.00;101350.97;10535948;28;20511;-79
2022/12/15 06:04:13;;;;;;;20.00;11.25;;;;;;;2.11;100.00;101347.16;10537119;28;20032;-79
2022/12/15 06:09:14;;;;;;;22.20;11.57;;;;;;;2.07;100.00;101338.63;10537273;28;20044;-79
2022/12/15 06:14:15;;;;;;;20.75;10.98;;;;;;;1.99;100.00;101340.84;10537018;28;20036;-79
2022/12/15 06:19:15;;;;;;;17.67;11.52;;;;;;;1.41;100.00;101257.72;10535318;28;20377;-79
2022/12/15 06:24:16;;;;;;;21.98;11.68;;;;;;;1.91;100.00;101329.94;10537388;28;20486;-79
2022/12/15 06:29:17;;;;;;;19.85;11.93;;;;;;;1.27;100.00;101241.03;10540276;28;20048;-79
2022/12/15 06:34:18;;;;;;;22.42;11.88;;;;;;;1.85;100.00;101335.53;10545455;28;20044;-80
2022/12/15 06:39:19;;;;;;;20.02;11.55;;;;;;;1.84;100.00;101337.31;10545014;28;20388;-79
2022/12/15 06:44:20;;;;;;;26.52;12.68;;;;;;;2.06;100.00;101342.16;10544217;28;20032;-78
2022/12/15 06:49:21;;;;;;;22.48;12.23;;;;;;;1.62;100.00;101260.91;10544202;28;20039;-79
2022/12/15 06:54:21;;;;;;;20.98;13.25;;;;;;;1.53;100.00;101262.28;10544080;28;20097;-79
2022/12/15 06:59:22;;;;;;;24.83;13.80;;;;;;;1.63;100.00;101257.34;10543413;28;20044;-79
2022/12/15 07:04:23;;;;;;;27.35;13.75;;;;;;;1.96;100.00;101292.06;10543648;28;20044;-79
2022/12/15 07:09:25;;;;;;;22.90;14.05;;;;;;;1.61;100.00;101239.09;10544109;28;20074;-81
2022/12/15 07:14:25;;;;;;;32.17;15.85;;;;;;;1.54;100.00;101207.19;10543248;28;20035;-79
2022/12/15 07:19:26;;;;;;;26.48;14.73;;;;;;;2.11;100.00;101308.69;10543167;28;20499;-80
2022/12/15 07:24:27;;;;;;;26.73;13.98;;;;;;;1.86;100.00;101275.22;10541085;28;20044;-80
2022/12/15 07:29:28;;;;;;;23.98;13.27;;;;;;;1.75;100.00;101254.84;10505101;28;20076;-79
2022/12/15 07:34:28;;;;;;;26.83;15.15;;;;;;;2.16;100.00;101304.03;10500330;28;20415;-79
2022/12/15 07:39:29;;;;;;;28.33;15.00;;;;;;;2.22;100.00;101302.81;10500104;28;20041;-78
2022/12/15 07:44:30;;;;;;;25.38;14.82;;;;;;;1.76;100.00;101217.25;10500843;28;20049;-79
2022/12/15 07:49:31;;;;;;;25.63;15.30;;;;;;;2.24;100.00;101300.94;10500463;28;20063;-79
2022/12/15 07:54:32;;;;;;;28.08;14.43;;;;;;;2.25;100.00;101295.59;10499268;28;20032;-78
2022/12/15 07:59:33;;;;;;;26.15;14.73;;;;;;;2.19;100.00;101264.50;10499002;28;20052;-78
2022/12/15 08:04:34;;;;;;;25.17;14.98;;;;;;;2.38;100.00;101284.38;10499774;28;20051;-78
2022/12/15 08:09:35;;;;;;;25.20;14.90;;;;;;;1.76;100.00;101183.19;10499212;28;20043;-78
2022/12/15 08:14:36;;;;;;;27.35;13.73;;;;;;;2.43;100.00;101277.09;10499585;28;20408;-78
2022/12/15 08:19:37;;;;;;;30.60;13.68;;;;;;;2.37;100.00;101259.09;10498787;28;20040;-78
2022/12/15 08:24:39;;;;;;;27.80;14.07;;;;;;;1.43;100.00;101109.25;10498040;28;20044;-78
2022/12/15 08:29:40;;;;;;;25.17;13.57;;;;;;;2.45;100.00;101265.56;10498583;28;20067;-79
2022/12/15 08:34:41;;;;;;;24.35;12.93;;;;;;;2.16;100.00;101208.81;10498115;28;20041;-79
2022/12/15 08:39:42;;;;;;;23.92;13.05;;;;;;;2.49;100.00;101258.34;10497367;28;20036;-79
2022/12/15 08:44:43;;;;;;;23.63;12.98;;;;;;;2.45;100.00;101238.47;10497551;28;20123;-79
2022/12/15 08:49:43;;;;;;;32.13;13.05;;;;;;;2.44;100.00;101232.41;10496773;28;20564;-78
2022/12/15 08:54:44;;;;;;;23.58;12.10;;;;;;;1.95;100.00;101134.94;10497005;28;20044;-79
2022/12/15 08:59:45;;;;;;;25.55;12.00;;;;;;;1.94;100.00;101122.75;10497135;28;20074;-79
2022/12/15 09:04:46;;;;;;;21.25;12.38;;;;;;;2.63;100.00;101232.13;10496525;28;20041;-79
2022/12/15 09:09:46;;;;;;;23.90;12.18;;;;;;;2.48;100.00;101202.44;10497126;28;20040;-76
2022/12/15 09:14:47;;;;;;;18.30;10.52;;;;;;;2.03;100.00;101123.06;10496755;28;20041;-76
2022/12/15 09:19:48;;;;;;;18.13;10.80;;;;;;;2.57;100.00;101198.38;10495933;28;20415;-78
2022/12/15 09:24:49;;;;;;;24.63;11.55;;;;;;;1.87;100.00;101085.63;10496406;28;20036;-77
2022/12/15 09:29:50;;;;;;;17.30;9.20;;;;;;;2.67;100.00;101207.38;10497221;28;20052;-77
2022/12/15 09:34:51;;;;;;;18.63;9.20;;;;;;;2.72;100.00;101207.94;10496879;28;20040;-77
2022/12/15 09:39:52;;;;;;;15.63;8.80;;;;;;;1.83;100.00;101018.66;10495526;28;20052;-77
2022/12/15 09:45:06;;;;;;;17.35;9.93;;;;;;;2.81;100.00;101155.81;10495759;28;20079;-77
2022/12/15 09:50:13;;;;;;;16.83;9.63;;;;;;;2.87;100.00;101160.66;10495305;28;20120;-77
2022/12/15 09:55:23;;;;;;;18.38;9.75;;;;;;;2.82;100.00;101163.59;10496271;28;20049;-77
2022/12/15 10:00:41;;;;;;;14.68;8.52;;;;;;;2.88;100.00;101164.97;10495633;28;20036;-76
2022/12/15 10:06:03;;;;;;;17.63;10.13;;;;;;;2.89;100.00;101154.38;10503907;28;20045;-77
2022/12/15 10:11:12;;;;;;;16.50;8.70;;;;;;;1.96;100.00;101003.00;10503403;28;20036;-77
2022/12/15 10:16:18;;;;;;;15.48;8.10;;;;;;;2.90;100.00;101149.97;10503757;28;20102;-78
2022/12/15 10:21:21;;;;;;;17.73;9.50;;;;;;;2.81;100.00;101126.94;10502400;28;20041;-77
2022/12/15 10:26:30;;;;;;;14.30;8.50;;;;;;;3.01;100.00;101149.28;10502695;28;20040;-77
2022/12/15 10:31:40;;;;;;;16.67;8.48;;;;;;;3.07;100.00;101148.88;10501847;28;20102;-78
2022/12/15 10:36:50;;;;;;;16.15;8.38;;;;;;;2.95;100.00;101143.47;10503219;28;20511;-78
2022/12/15 10:42:11;;;;;;;20.13;9.85;;;;;;;2.78;100.00;101099.09;10503322;28;20076;-78
2022/12/15 10:47:20;;;;;;;15.25;8.15;;;;;;;2.54;100.00;101067.44;10502537;28;20079;-78
2022/12/15 10:52:35;;;;;;;14.32;8.23;;;;;;;2.68;100.00;101082.28;10502392;28;20044;-78
2022/12/15 10:57:35;;;;;;;20.33;11.55;;;;;;;2.87;100.00;101129.16;10501884;28;20567;-78
2022/12/15 11:02:36;;;;;;;19.85;12.00;;;;;;;2.74;100.00;101118.63;10502014;28;20135;-78
2022/12/15 11:07:44;;;;;;;16.95;9.00;;;;;;;2.86;100.00;101106.50;10502507;28;20048;-78
2022/12/15 11:12:56;;;;;;;17.77;9.50;;;;;;;3.10;100.00;101146.88;10502131;28;20105;-76
2022/12/15 11:18:20;;;;;;;19.00;11.07;;;;;;;3.12;100.00;101158.16;10500312;28;20044;-76
2022/12/15 11:23:46;;;;;;;23.33;12.30;;;;;;;3.15;100.00;101160.56;10500938;28;20519;-78
2022/12/15 11:29:14;;;;;;;20.77;10.38;;;;;;;2.93;100.00;101107.78;10500564;28;20086;-79
2022/12/15 11:34:23;;;;;;;56.28;35.38;;;;;;;2.78;100.00;101085.16;10499747;28;20079;-76
2022/12/15 11:39:38;;;;;;;20.42;10.23;;;;;;;2.50;100.00;101035.31;10499617;28;20138;-75
2022/12/15 11:44:50;;;;;;;31.42;17.88;;;;;;;2.87;100.00;101118.66;10500239;28;20041;-79
2022/12/15 11:50:05;;;;;;;23.88;12.55;;;;;;;2.99;100.00;101133.63;10499562;28;20115;-76
2022/12/15 11:55:14;;;;;;;18.65;10.50;;;;;;;2.87;100.00;101132.66;10499630;28;20043;-75
2022/12/15 12:00:24;;;;;;;21.75;11.10;;;;;;;2.96;100.00;101131.19;10505009;28;20044;-77
2022/12/15 12:05:30;;;;;;;18.90;8.70;;;;;;;2.96;100.00;101128.56;10512396;28;20044;-77
2022/12/15 12:10:46;;;;;;;20.73;9.35;;;;;;;2.83;100.00;101110.16;10540500;28;20043;-77
2022/12/15 12:15:54;;;;;;;19.10;9.57;;;;;;;3.06;100.00;101127.03;10540295;28;20044;-77
2022/12/15 12:21:11;;;;;;;49.90;28.77;;;;;;;3.14;100.00;101148.41;10540760;28;20039;-79
2022/12/15 12:26:34;;;;;;;31.00;11.13;;;;;;;3.12;100.00;101142.38;10527934;28;20088;-78
2022/12/15 12:32:01;;;;;;;19.73;10.70;;;;;;;3.15;100.00;101142.19;10507896;28;20047;-79
2022/12/15 12:37:19;;;;;;;23.48;12.05;;;;;;;3.15;100.00;101138.72;10498604;28;20044;-81
2022/12/15 12:42:55;;;;;;;25.10;10.75;;;;;;;3.10;100.00;101140.81;10498242;28;20032;-82
2022/12/15 12:48:01;;;;;;;22.85;10.68;;;;;;;3.04;100.00;101136.78;10494800;28;20063;-75
2022/12/15 12:53:02;;;;;;;22.17;9.77;;;;;;;2.77;100.00;101092.19;10514254;28;20056;-82
2022/12/15 12:58:31;;;;;;;21.63;10.20;;;;;;;2.91;100.00;101121.00;10538532;28;20491;-80
2022/12/15 13:03:32;;;;;;;26.70;11.15;;;;;;;2.67;100.00;101112.94;10479729;28;20105;-76
2022/12/15 13:08:52;;;;;;;30.35;11.52;;;;;;;2.34;100.00;101052.16;10494703;28;20407;-79
2022/12/15 13:13:53;;;;;;;23.55;11.18;;;;;;;2.69;100.00;101116.31;10523384;28;20075;-78
2022/12/15 13:19:05;;;;;;;42.90;11.43;;;;;;;2.62;100.00;101106.28;10537996;28;20044;-78
2022/12/15 13:24:45;;;;;;;28.88;11.73;;;;;;;2.82;100.00;101121.59;10537685;28;20069;-79
2022/12/15 13:29:57;;;;;;;35.75;13.15;;;;;;;2.82;100.00;101102.41;10511151;28;20063;-79
2022/12/15 13:35:15;;;;;;;30.60;13.80;;;;;;;3.00;100.00;101137.09;10512556;28;20052;-78
2022/12/15 13:40:34;;;;;;;33.55;13.23;;;;;;;3.06;100.00;101137.53;10476411;28;20044;-82
2022/12/15 13:45:56;;;;;;;35.35;15.48;;;;;;;2.96;100.00;101099.69;10460930;28;20061;-77
2022/12/15 13:51:31;;;;;;;66.78;14.50;;;;;;;2.96;100.00;101099.69;10481178;28;20732;-77
2022/12/15 13:56:45;;;;;;;54.28;16.23;;;;;;;2.96;100.00;101112.81;10471597;28;20143;-77
2022/12/15 14:01:50;;;;;;;39.30;16.88;;;;;;;2.91;100.00;101109.69;10473909;28;20461;-78
2022/12/15 14:06:57;;;;;;;33.63;15.50;;;;;;;3.03;100.00;101114.13;10470823;28;20048;-78
2022/12/15 14:12:01;;;;;;;37.67;17.25;;;;;;;2.62;100.00;101051.22;10469463;28;20097;-77
2022/12/15 14:17:12;;;;;;;36.38;15.25;;;;;;;2.53;100.00;101046.56;10482218;28;20483;-76
2022/12/15 14:22:26;;;;;;;31.15;13.13;;;;;;;2.59;100.00;101049.63;10512524;28;20087;-76
2022/12/15 14:27:29;;;;;;;30.52;14.52;;;;;;;2.99;100.00;101128.38;10521407;28;20036;-74
2022/12/15 14:32:30;;;;;;;54.50;17.77;;;;;;;2.19;100.00;101027.75;10482100;28;20424;-75
2022/12/15 14:37:32;;;;;;;56.58;16.95;;;;;;;2.12;100.00;101008.94;10495128;28;20041;-75
2022/12/15 14:42:33;;;;;;;42.97;16.58;;;;;;;2.62;100.00;101094.03;10494680;28;20044;-77
2022/12/15 14:47:34;;;;;;;37.97;16.27;;;;;;;2.43;100.00;101059.44;10496693;28;20060;-76
2022/12/15 14:52:41;;;;;;;55.13;21.45;;;;;;;2.68;100.00;101085.75;10498693;28;20040;-77
2022/12/15 14:57:44;;;;;;;44.70;18.35;;;;;;;2.87;100.00;101114.28;10499217;28;20404;-77
2022/12/15 15:02:45;;;;;;;45.50;18.00;;;;;;;2.92;100.00;101108.72;10500870;28;20044;-76
2022/12/15 15:07:46;;;;;;;41.47;17.15;;;;;;;2.87;100.00;101089.81;10502665;28;20040;-77
2022/12/15 15:12:48;;;;;;;43.33;18.33;;;;;;;2.25;100.00;101001.16;10534063;28;20043;-78
2022/12/15 15:17:57;;;;;;;42.95;17.80;;;;;;;2.91;100.00;101105.25;10543259;28;20409;-76
2022/12/15 15:23:09;;;;;;;46.25;18.55;;;;;;;2.09;100.00;100958.50;10542468;28;20055;-77
2022/12/15 15:28:17;;;;;;;43.08;17.20;;;;;;;2.90;100.00;101077.34;10542645;28;20546;-76
2022/12/15 15:33:18;;;;;;;44.95;18.95;;;;;;;2.78;100.00;101077.28;10541974;28;20442;-76
2022/12/15 15:38:33;;;;;;;55.55;19.23;;;;;;;2.20;100.00;100964.72;10528540;28;20057;-78
2022/12/15 15:43:34;;;;;;;52.35;18.90;;;;;;;2.05;100.00;100929.03;10458545;28;20036;-75
2022/12/15 15:48:42;;;;;;;51.28;19.88;;;;;;;2.33;100.00;100967.38;10458755;28;20115;-77
2022/12/15 15:53:43;;;;;;;49.75;21.13;;;;;;;2.71;100.00;101055.84;10458544;28;20098;-76
2022/12/15 15:58:45;;;;;;;75.45;21.23;;;;;;;2.82;100.00;101081.41;10456646;28;20063;-77
2022/12/15 16:03:46;;;;;;;76.00;20.20;;;;;;;2.47;100.00;101037.31;10458587;28;20041;-78
2022/12/15 16:08:52;;;;;;;62.17;20.65;;;;;;;2.80;100.00;101078.88;10457684;28;20403;-76
2022/12/15 16:13:53;;;;;;;92.88;21.95;;;;;;;2.59;100.00;101062.75;10457930;28;20133;-76
2022/12/15 16:18:54;;;;;;;57.25;19.85;;;;;;;2.60;100.00;101067.03;10456949;28;20049;-76
2022/12/15 16:23:57;;;;;;;63.20;21.67;;;;;;;2.47;100.00;101038.16;10457407;28;20040;-76
2022/12/15 16:28:57;;;;;;;78.65;19.83;;;;;;;2.59;100.00;101052.25;10456435;28;20053;-76
2022/12/15 16:33:59;;;;;;;82.32;22.75;;;;;;;2.70;100.00;101083.88;10457586;28;20056;-76
2022/12/15 16:39:00;;;;;;;94.70;22.80;;;;;;;2.68;100.00;101067.38;10449580;28;20161;-76
2022/12/15 16:44:01;;;;;;;80.70;22.58;;;;;;;2.69;100.00;101070.84;10509788;28;20391;-75
2022/12/15 16:49:02;;;;;;;88.22;22.60;;;;;;;2.68;100.00;101054.28;10491207;28;20048;-79
2022/12/15 16:54:03;;;;;;;59.88;21.75;;;;;;;2.71;100.00;101054.06;10519586;28;20047;-77
2022/12/15 16:59:04;;;;;;;76.47;23.98;;;;;;;1.82;100.00;100905.16;10515243;28;20066;-78
2022/12/15 17:04:05;;;;;;;69.90;23.33;;;;;;;2.64;100.00;101030.97;10475242;28;20051;-77
2022/12/15 17:09:07;;;;;;;79.82;22.50;;;;;;;1.98;100.00;100935.63;10482204;28;20048;-76
2022/12/15 17:14:09;;;;;;;67.28;22.85;;;;;;;2.55;100.00;101027.16;10479091;28;20094;-75
2022/12/15 17:19:09;;;;;;;69.28;22.48;;;;;;;2.24;100.00;100968.00;10479045;28;20045;-75
2022/12/15 17:24:14;;;;;;;79.93;23.65;;;;;;;2.73;100.00;101044.31;10479278;28;20035;-75
2022/12/15 17:29:17;;;;;;;81.00;24.13;;;;;;;2.59;100.00;101012.06;10485063;28;20033;-75
2022/12/15 17:34:29;;;;;;;71.50;25.17;;;;;;;2.65;100.00;101015.13;10479954;28;20069;-74
2022/12/15 17:39:32;;;;;;;69.60;24.50;;;;;;;2.65;100.00;101030.03;10478876;28;20044;-77
2022/12/15 17:44:34;;;;;;;90.00;26.98;;;;;;;2.78;100.00;101037.94;10476946;28;20056;-81
2022/12/15 17:49:35;;;;;;;89.30;26.52;;;;;;;2.55;100.00;100997.47;10467552;28;20523;-79
2022/12/15 17:54:36;;;;;;;87.60;26.60;;;;;;;2.46;100.00;100986.66;10478678;28;20040;-78
2022/12/15 17:59:37;;;;;;;82.20;25.83;;;;;;;1.72;100.00;100875.22;10479718;28;20510;-78
2022/12/15 18:04:39;;;;;;;96.57;23.80;;;;;;;2.61;100.00;101008.41;10485457;28;20485;-78
2022/12/15 18:09:40;;;;;;;84.60;23.90;;;;;;;2.47;100.00;100987.47;10490427;28;20048;-75
2022/12/15 18:14:41;;;;;;;78.50;23.48;;;;;;;2.67;100.00;101022.91;10513803;28;20032;-78
2022/12/15 18:19:41;;;;;;;88.55;23.10;;;;;;;2.22;100.00;100938.44;10497053;28;20052;-78
2022/12/15 18:24:42;;;;;;;96.63;24.08;;;;;;;2.05;100.00;100895.78;10504215;28;20084;-78
2022/12/15 18:29:43;;;;;;;87.88;24.05;;;;;;;2.58;100.00;100984.16;10488633;28;20043;-78
2022/12/15 18:34:45;;;;;;;78.25;23.67;;;;;;;2.47;100.00;100967.34;10495128;28;20059;-79
2022/12/15 18:39:46;;;;;;;71.10;23.38;;;;;;;2.49;100.00;100972.50;10479963;28;20151;-78
2022/12/15 18:44:49;;;;;;;69.50;26.67;;;;;;;2.65;100.00;100988.88;10477947;28;20598;-78
2022/12/15 18:49:52;;;;;;;88.22;29.33;;;;;;;2.03;100.00;100874.13;10478107;28;20043;-78
2022/12/15 18:54:53;;;;;;;87.88;37.63;;;;;;;2.47;100.00;100956.84;10461487;28;20037;-79
2022/12/15 19:00:08;;;;;;;88.00;49.97;;;;;;;2.62;100.00;100965.50;10483414;28;20046;-81
2022/12/15 19:05:27;;;;;;;99.25;52.25;;;;;;;2.45;100.00;100950.88;10499581;28;20031;-78
2022/12/15 19:10:32;;;;;;;84.82;50.95;;;;;;;2.45;100.00;100963.13;10490049;28;20075;-80
2022/12/15 19:15:33;;;;;;;80.80;48.25;;;;;;;2.49;100.00;100960.22;10498363;28;20051;-79
2022/12/15 19:25:53;;;;;;;74.63;44.35;;;;;;;2.45;100.00;100939.53;10543150;28;20043;-77
2022/12/15 19:30:54;;;;;;;72.10;43.83;;;;;;;2.43;100.00;100928.31;10542771;28;20365;-78
2022/12/15 19:35:56;;;;;;;80.45;45.85;;;;;;;2.18;100.00;100895.00;10543045;28;20039;-79
2022/12/15 19:40:59;;;;;;;73.75;44.38;;;;;;;2.31;100.00;100921.25;10542068;28;20088;-78
2022/12/15 19:45:59;;;;;;;76.80;43.15;;;;;;;2.44;100.00;100950.97;10541645;28;20059;-79
2022/12/15 19:51:00;;;;;;;77.63;45.35;;;;;;;2.36;100.00;100940.13;10542931;28;20468;-78
2022/12/15 19:56:03;;;;;;;85.93;48.60;;;;;;;2.35;100.00;100933.22;10542248;28;20068;-75
2022/12/15 20:01:13;;;;;;;80.45;48.85;;;;;;;2.29;100.00;100951.03;10529054;28;20066;-75
2022/12/15 20:06:19;;;;;;;78.93;50.25;;;;;;;2.30;100.00;100951.84;10541032;28;20044;-76
2022/12/15 20:11:21;;;;;;;85.07;52.92;;;;;;;2.12;100.00;100921.59;10542045;28;20046;-76
2022/12/15 20:16:23;;;;;;;96.65;55.88;;;;;;;2.00;100.00;100910.13;10540605;28;20036;-75
2022/12/15 20:21:30;;;;;;;89.97;58.55;;;;;;;2.23;100.00;100940.94;10540291;28;20062;-76
2022/12/15 20:26:31;;;;;;;94.65;58.03;;;;;;;1.97;100.00;100905.09;10541708;28;20474;-75
2022/12/15 20:31:31;;;;;;;97.85;60.35;;;;;;;2.22;100.00;100952.38;10539780;28;20079;-76
2022/12/15 20:36:32;;;;;;;90.97;59.95;;;;;;;2.18;100.00;100932.53;10540715;28;20383;-75
2022/12/15 20:41:34;;;;;;;94.95;60.15;;;;;;;2.14;100.00;100931.06;10538755;28;20047;-75
2022/12/15 20:46:35;;;;;;;96.65;58.25;;;;;;;1.51;100.00;100845.19;10539393;28;20059;-75
2022/12/15 20:51:36;;;;;;;91.20;57.30;;;;;;;2.01;100.00;100936.25;10539755;28;20036;-75
2022/12/15 20:56:36;;;;;;;83.93;55.78;;;;;;;2.02;100.00;100929.22;10539470;28;20560;-75
2022/12/15 21:01:38;;;;;;;89.32;53.08;;;;;;;1.89;100.00;100908.22;10539382;28;20495;-75
2022/12/15 21:06:39;;;;;;;79.07;50.13;;;;;;;1.80;100.00;100893.09;10538998;28;20079;-75
2022/12/15 21:11:40;;;;;;;80.15;47.65;;;;;;;1.95;100.00;100922.72;10537438;28;20040;-75
2022/12/15 21:16:41;;;;;;;78.53;45.05;;;;;;;1.64;100.00;100885.34;10538193;28;20504;-75
2022/12/15 21:21:46;;;;;;;71.78;40.35;;;;;;;1.69;100.00;100925.19;10538684;28;20043;-75
2022/12/15 21:26:48;;;;;;;68.25;38.47;;;;;;;1.61;100.00;100911.72;10537895;28;20039;-75
2022/12/15 21:31:49;;;;;;;79.95;38.10;;;;;;;1.79;100.00;100935.94;10538051;28;20040;-75
2022/12/15 21:36:52;;;;;;;67.93;36.85;;;;;;;1.36;100.00;100860.06;10537396;28;20067;-75
2022/12/15 21:41:52;;;;;;;65.78;35.88;;;;;;;1.35;100.00;100856.63;10537994;28;20036;-75
2022/12/15 21:46:53;;;;;;;55.90;30.98;;;;;;;1.76;100.00;100929.09;10525162;28;20049;-75
2022/12/15 21:51:59;;;;;;;51.53;29.08;;;;;;;1.60;100.00;100899.59;10537712;28;20044;-75
2022/12/15 21:57:01;;;;;;;52.58;28.73;;;;;;;1.73;100.00;100938.94;10537964;28;20047;-75
2022/12/15 22:02:27;;;;;;;46.58;27.45;;;;;;;1.65;100.00;100928.94;10537388;28;20119;-75
2022/12/15 22:07:28;;;;;;;46.15;26.85;;;;;;;1.68;100.00;100928.75;10537105;28;20044;-76
2022/12/15 22:12:29;;;;;;;54.35;26.98;;;;;;;1.76;100.00;100925.63;10537427;28;20123;-75
2022/12/15 22:17:31;;;;;;;51.13;27.50;;;;;;;1.72;100.00;100932.84;10535983;28;20036;-75
2022/12/15 22:22:31;;;;;;;49.78;27.63;;;;;;;1.69;100.00;100933.06;10537297;28;20530;-75
2022/12/15 22:27:33;;;;;;;47.35;25.45;;;;;;;1.56;100.00;100898.94;10536099;28;20189;-75
2022/12/15 22:32:34;;;;;;;44.50;26.70;;;;;;;1.55;100.00;100880.69;10536981;28;20051;-76
2022/12/15 22:37:35;;;;;;;43.58;26.67;;;;;;;1.69;100.00;100914.72;10536089;28;20047;-76
2022/12/15 22:42:36;;;;;;;49.10;26.27;;;;;;;1.62;100.00;100908.19;10536651;28;20044;-75
2022/12/15 22:47:37;;;;;;;45.97;26.20;;;;;;;1.56;100.00;100898.09;10536263;28;20473;-75
2022/12/15 22:52:38;;;;;;;46.47;24.42;;;;;;;1.74;100.00;100909.19;10536022;28;20052;-75
2022/12/15 22:57:39;;;;;;;40.75;25.60;;;;;;;1.64;100.00;100900.22;10502482;28;20130;-75
2022/12/15 23:02:44;;;;;;;46.15;25.50;;;;;;;1.69;100.00;100919.97;10453089;28;20049;-75
2022/12/15 23:07:45;;;;;;;47.38;25.55;;;;;;;1.63;100.00;100904.63;10453238;28;20392;-75
2022/12/15 23:12:46;;;;;;;41.08;24.10;;;;;;;1.44;100.00;100865.69;10487396;28;20032;-75
2022/12/15 23:17:46;;;;;;;46.13;25.67;;;;;;;1.35;100.00;100854.00;10542870;28;20048;-76
2022/12/15 23:22:47;;;;;;;44.58;25.67;;;;;;;1.74;100.00;100920.50;10543727;28;20381;-75
2022/12/15 23:27:48;;;;;;;42.28;23.75;;;;;;;1.86;100.00;100942.47;10543052;28;20044;-75
2022/12/15 23:32:49;;;;;;;42.08;24.77;;;;;;;1.73;100.00;100931.06;10543203;28;20470;-75
2022/12/15 23:37:50;;;;;;;45.13;25.27;;;;;;;1.90;100.00;100943.13;10542478;28;20177;-75
2022/12/15 23:42:51;;;;;;;46.38;25.85;;;;;;;1.83;100.00;100938.25;10543105;28;20043;-75
2022/12/15 23:47:51;;;;;;;43.53;25.52;;;;;;;1.63;100.00;100891.53;10540930;28;20139;-75
2022/12/15 23:52:52;;;;;;;46.72;25.85;;;;;;;1.27;100.00;100832.69;10542622;28;20185;-75
2022/12/15 23:57:56;;;;;;;52.88;26.30;;;;;;;1.58;100.00;100891.81;10540608;28;20050;-75
